sensor_id;sensor_type;location;lat;lon;timestamp;pressure;altitude;pressure_sealevel;temperature;humidity
19843;BME280;10082;51.038;6.992;2023-06-22T01:09:51;112171.53;;;-144.33;78.54
19843;BME280;10082;51.038;6.992;2023-06-22T01:12:22;112171.53;;;-144.33;79.27
19843;BME280;10082;51.038;6.992;2023-06-22T01:14:56;112171.53;;;-144.33;79.95
19843;BME280;10082;51.038;6.992;2023-06-22T01:17:28;112171.53;;;-144.33;80.98
19843;BME280;10082;51.038;6.992;2023-06-22T01:19:58;112171.53;;;-144.33;82.15
19843;BME280;10082;51.038;6.992;2023-06-22T01:22:31;112171.53;;;-144.33;81.21
19843;BME280;10082;51.038;6.992;2023-06-22T01:28:50;112171.53;;;-144.33;78.45
19843;BME280;10082;51.038;6.992;2023-06-22T01:31:23;112171.53;;;-144.33;77.92
19843;BME280;10082;51.038;6.992;2023-06-22T01:33:54;112171.53;;;-144.33;77.82
19843;BME280;10082;51.038;6.992;2023-06-22T01:36:26;112171.53;;;-144.33;77.53
19843;BME280;10082;51.038;6.992;2023-06-22T01:38:56;112171.53;;;-144.33;77.93
19843;BME280;10082;51.038;6.992;2023-06-22T01:41:28;112171.53;;;-144.33;79.53
19843;BME280;10082;51.038;6.992;2023-06-22T01:43:59;112171.53;;;-144.33;81.08
19843;BME280;10082;51.038;6.992;2023-06-22T01:46:27;112171.53;;;-144.33;81.91
19843;BME280;10082;51.038;6.992;2023-06-22T01:48:59;112171.53;;;-144.33;82.78
19843;BME280;10082;51.038;6.992;2023-06-22T01:51:30;112171.53;;;-144.33;83.46
19843;BME280;10082;51.038;6.992;2023-06-22T01:54:02;112171.53;;;-144.33;84.83
19843;BME280;10082;51.038;6.992;2023-06-22T01:56:30;112171.53;;;-144.33;84.92
19843;BME280;10082;51.038;6.992;2023-06-22T01:59:08;112171.53;;;-144.33;85.20
19843;BME280;10082;51.038;6.992;2023-06-22T02:01:42;112171.53;;;-144.33;85.31
19843;BME280;10082;51.038;6.992;2023-06-22T02:04:16;112171.53;;;-144.33;85.38
19843;BME280;10082;51.038;6.992;2023-06-22T02:06:47;112171.53;;;-144.33;86.59
19843;BME280;10082;51.038;6.992;2023-06-22T02:09:24;112171.53;;;-144.33;87.94
19843;BME280;10082;51.038;6.992;2023-06-22T02:11:54;112171.53;;;-144.33;87.32
19843;BME280;10082;51.038;6.992;2023-06-22T02:14:27;112171.53;;;-144.33;87.73
19843;BME280;10082;51.038;6.992;2023-06-22T02:16:56;112171.53;;;-144.33;89.40
19843;BME280;10082;51.038;6.992;2023-06-22T02:19:24;112171.53;;;-144.33;90.94
19843;BME280;10082;51.038;6.992;2023-06-22T02:21:52;112171.53;;;-144.33;91.71
19843;BME280;10082;51.038;6.992;2023-06-22T02:24:21;112171.53;;;-144.33;92.40
19843;BME280;10082;51.038;6.992;2023-06-22T02:26:49;112171.53;;;-144.33;93.05
19843;BME280;10082;51.038;6.992;2023-06-22T02:29:17;112171.53;;;-144.33;94.12
19843;BME280;10082;51.038;6.992;2023-06-22T02:31:46;112171.53;;;-144.33;94.70
19843;BME280;10082;51.038;6.992;2023-06-22T02:34:14;112171.53;;;-144.33;95.26
19843;BME280;10082;51.038;6.992;2023-06-22T02:36:44;112171.53;;;-144.33;96.80
19843;BME280;10082;51.038;6.992;2023-06-22T02:39:18;112171.53;;;-144.33;97.28
19843;BME280;10082;51.038;6.992;2023-06-22T02:41:46;112171.53;;;-144.33;96.36
19843;BME280;10082;51.038;6.992;2023-06-22T02:44:17;112171.53;;;-144.33;96.43
19843;BME280;10082;51.038;6.992;2023-06-22T02:46:49;112171.53;;;-144.33;95.90
19843;BME280;10082;51.038;6.992;2023-06-22T02:49:17;112171.53;;;-144.33;96.88
19843;BME280;10082;51.038;6.992;2023-06-22T02:51:46;112171.53;;;-144.33;96.78
19843;BME280;10082;51.038;6.992;2023-06-22T02:54:17;112171.53;;;-144.33;96.42
19843;BME280;10082;51.038;6.992;2023-06-22T02:56:47;112171.53;;;-144.33;96.06
19843;BME280;10082;51.038;6.992;2023-06-22T02:59:17;112171.53;;;-144.33;97.08
19843;BME280;10082;51.038;6.992;2023-06-22T03:01:55;112171.53;;;-144.33;96.28
19843;BME280;10082;51.038;6.992;2023-06-22T03:04:28;112171.53;;;-144.33;95.47
19843;BME280;10082;51.038;6.992;2023-06-22T03:06:56;112171.53;;;-144.33;95.95
19843;BME280;10082;51.038;6.992;2023-06-22T03:09:30;112171.53;;;-144.33;95.19
19843;BME280;10082;51.038;6.992;2023-06-22T03:11:58;112171.53;;;-144.33;95.74
19843;BME280;10082;51.038;6.992;2023-06-22T03:14:32;112171.53;;;-144.33;93.60
19843;BME280;10082;51.038;6.992;2023-06-22T03:17:00;112171.53;;;-144.33;90.70
19843;BME280;10082;51.038;6.992;2023-06-22T03:19:29;112171.53;;;-144.33;89.39
19843;BME280;10082;51.038;6.992;2023-06-22T03:21:56;112171.53;;;-144.33;88.42
19843;BME280;10082;51.038;6.992;2023-06-22T03:24:25;112171.53;;;-144.33;86.59
19843;BME280;10082;51.038;6.992;2023-06-22T03:26:54;112171.53;;;-144.33;85.28
19843;BME280;10082;51.038;6.992;2023-06-22T03:29:22;112171.53;;;-144.33;84.83
19843;BME280;10082;51.038;6.992;2023-06-22T03:34:54;112171.53;;;-144.33;84.88
19843;BME280;10082;51.038;6.992;2023-06-22T03:37:25;112171.53;;;-144.33;84.93
19843;BME280;10082;51.038;6.992;2023-06-22T03:39:52;112171.53;;;-144.33;85.09
19843;BME280;10082;51.038;6.992;2023-06-22T03:42:19;112171.53;;;-144.33;84.92
19843;BME280;10082;51.038;6.992;2023-06-22T03:44:46;112171.53;;;-144.33;83.57
19843;BME280;10082;51.038;6.992;2023-06-22T03:47:13;112171.53;;;-144.33;83.07
19843;BME280;10082;51.038;6.992;2023-06-22T03:49:41;112171.53;;;-144.33;86.43
19843;BME280;10082;51.038;6.992;2023-06-22T03:52:10;112171.53;;;-144.33;87.98
19843;BME280;10082;51.038;6.992;2023-06-22T03:54:43;112171.53;;;-144.33;87.92
19843;BME280;10082;51.038;6.992;2023-06-22T03:57:11;112171.53;;;-144.33;88.27
19843;BME280;10082;51.038;6.992;2023-06-22T03:59:38;112171.53;;;-144.33;87.78
19843;BME280;10082;51.038;6.992;2023-06-22T04:02:06;112171.53;;;-144.33;86.43
19843;BME280;10082;51.038;6.992;2023-06-22T04:04:33;112171.53;;;-144.33;87.04
19843;BME280;10082;51.038;6.992;2023-06-22T04:07:01;112171.53;;;-144.33;86.98
19843;BME280;10082;51.038;6.992;2023-06-22T04:09:30;112171.53;;;-144.33;86.92
19843;BME280;10082;51.038;6.992;2023-06-22T04:11:58;112171.53;;;-144.33;85.59
19843;BME280;10082;51.038;6.992;2023-06-22T04:14:25;112171.53;;;-144.33;86.96
19843;BME280;10082;51.038;6.992;2023-06-22T04:16:53;112171.53;;;-144.33;88.37
19843;BME280;10082;51.038;6.992;2023-06-22T04:19:21;112171.53;;;-144.33;87.54
19843;BME280;10082;51.038;6.992;2023-06-22T04:21:48;112171.53;;;-144.33;87.43
19843;BME280;10082;51.038;6.992;2023-06-22T04:24:16;112171.53;;;-144.33;87.19
19843;BME280;10082;51.038;6.992;2023-06-22T04:26:44;112171.53;;;-144.33;87.10
19843;BME280;10082;51.038;6.992;2023-06-22T04:29:13;112171.53;;;-144.33;87.30
19843;BME280;10082;51.038;6.992;2023-06-22T04:31:43;112171.53;;;-144.33;88.37
19843;BME280;10082;51.038;6.992;2023-06-22T04:34:13;112171.53;;;-144.33;89.47
19843;BME280;10082;51.038;6.992;2023-06-22T04:36:41;112171.53;;;-144.33;88.22
19843;BME280;10082;51.038;6.992;2023-06-22T04:39:16;112171.53;;;-144.33;90.92
19843;BME280;10082;51.038;6.992;2023-06-22T04:41:46;112171.53;;;-144.33;92.05
19843;BME280;10082;51.038;6.992;2023-06-22T04:44:14;112171.53;;;-144.33;94.08
19843;BME280;10082;51.038;6.992;2023-06-22T04:46:49;112171.53;;;-144.33;92.66
19843;BME280;10082;51.038;6.992;2023-06-22T04:49:19;112171.53;;;-144.33;91.42
19843;BME280;10082;51.038;6.992;2023-06-22T04:51:48;112171.53;;;-144.33;90.44
19843;BME280;10082;51.038;6.992;2023-06-22T04:54:17;112171.53;;;-144.33;91.01
19843;BME280;10082;51.038;6.992;2023-06-22T04:56:46;112171.53;;;-144.33;90.12
19843;BME280;10082;51.038;6.992;2023-06-22T04:59:14;112171.53;;;-144.33;90.33
19843;BME280;10082;51.038;6.992;2023-06-22T05:01:44;112171.53;;;-144.33;91.06
19843;BME280;10082;51.038;6.992;2023-06-22T05:04:11;112171.53;;;-144.33;91.45
19843;BME280;10082;51.038;6.992;2023-06-22T05:06:38;112171.53;;;-144.33;95.08
19843;BME280;10082;51.038;6.992;2023-06-22T05:09:05;112171.53;;;-144.33;94.63
19843;BME280;10082;51.038;6.992;2023-06-22T05:11:32;112171.53;;;-144.33;94.28
19843;BME280;10082;51.038;6.992;2023-06-22T05:14:01;112171.53;;;-144.33;93.91
19843;BME280;10082;51.038;6.992;2023-06-22T05:16:28;112171.53;;;-144.33;94.86
19843;BME280;10082;51.038;6.992;2023-06-22T05:18:55;112171.53;;;-144.33;93.79
19843;BME280;10082;51.038;6.992;2023-06-22T05:21:31;112171.53;;;-144.33;97.01
19843;BME280;10082;51.038;6.992;2023-06-22T05:23:59;112171.53;;;-144.33;96.10
19843;BME280;10082;51.038;6.992;2023-06-22T05:26:28;112171.53;;;-144.33;100.00
19843;BME280;10082;51.038;6.992;2023-06-22T05:28:56;112171.53;;;-144.33;99.38
19843;BME280;10082;51.038;6.992;2023-06-22T05:31:25;112171.53;;;-144.33;96.20
19843;BME280;10082;51.038;6.992;2023-06-22T05:33:55;112171.53;;;-144.33;95.06
19843;BME280;10082;51.038;6.992;2023-06-22T05:36:23;112171.53;;;-144.33;95.26
19843;BME280;10082;51.038;6.992;2023-06-22T05:38:52;112171.53;;;-144.33;95.04
19843;BME280;10082;51.038;6.992;2023-06-22T05:41:19;112171.53;;;-144.33;95.83
19843;BME280;10082;51.038;6.992;2023-06-22T05:43:49;112171.53;;;-144.33;95.17
19843;BME280;10082;51.038;6.992;2023-06-22T05:46:22;112171.53;;;-144.33;94.13
19843;BME280;10082;51.038;6.992;2023-06-22T05:49:00;112171.53;;;-144.33;92.57
19843;BME280;10082;51.038;6.992;2023-06-22T05:51:37;112171.53;;;-144.33;93.87
19843;BME280;10082;51.038;6.992;2023-06-22T05:54:06;112171.53;;;-144.33;96.06
19843;BME280;10082;51.038;6.992;2023-06-22T05:56:39;112171.53;;;-144.33;96.35
19843;BME280;10082;51.038;6.992;2023-06-22T05:59:07;112171.53;;;-144.33;97.86
19843;BME280;10082;51.038;6.992;2023-06-22T06:01:35;112171.53;;;-144.33;97.59
19843;BME280;10082;51.038;6.992;2023-06-22T06:04:14;112171.53;;;-144.33;98.50
19843;BME280;10082;51.038;6.992;2023-06-22T06:06:42;112171.53;;;-144.33;99.01
19843;BME280;10082;51.038;6.992;2023-06-22T06:09:11;112171.53;;;-144.33;98.14
19843;BME280;10082;51.038;6.992;2023-06-22T06:11:39;112171.53;;;-144.33;98.18
19843;BME280;10082;51.038;6.992;2023-06-22T06:14:06;112171.53;;;-144.33;97.44
19843;BME280;10082;51.038;6.992;2023-06-22T06:16:34;112171.53;;;-144.33;97.38
19843;BME280;10082;51.038;6.992;2023-06-22T06:19:04;112171.53;;;-144.33;98.11
19843;BME280;10082;51.038;6.992;2023-06-22T06:21:33;112171.53;;;-144.33;98.27
19843;BME280;10082;51.038;6.992;2023-06-22T06:24:02;112171.53;;;-144.33;97.01
19843;BME280;10082;51.038;6.992;2023-06-22T06:26:30;112171.53;;;-144.33;95.47
19843;BME280;10082;51.038;6.992;2023-06-22T06:29:10;112171.53;;;-144.33;92.90
19843;BME280;10082;51.038;6.992;2023-06-22T06:31:37;112171.53;;;-144.33;91.82
19843;BME280;10082;51.038;6.992;2023-06-22T06:34:05;112171.53;;;-144.33;91.09
19843;BME280;10082;51.038;6.992;2023-06-22T06:36:33;112171.53;;;-144.33;91.41
19843;BME280;10082;51.038;6.992;2023-06-22T06:39:00;112171.53;;;-144.33;87.90
19843;BME280;10082;51.038;6.992;2023-06-22T06:41:29;112171.53;;;-144.33;86.60
19843;BME280;10082;51.038;6.992;2023-06-22T06:43:59;112171.53;;;-144.33;83.57
19843;BME280;10082;51.038;6.992;2023-06-22T06:46:28;112171.53;;;-144.33;83.41
19843;BME280;10082;51.038;6.992;2023-06-22T06:48:56;112171.53;;;-144.33;87.35
19843;BME280;10082;51.038;6.992;2023-06-22T06:51:25;112171.53;;;-144.33;88.29
19843;BME280;10082;51.038;6.992;2023-06-22T06:53:55;112171.53;;;-144.33;87.49
19843;BME280;10082;51.038;6.992;2023-06-22T06:56:23;112171.53;;;-144.33;87.27
19843;BME280;10082;51.038;6.992;2023-06-22T06:58:51;112171.53;;;-144.33;83.99
19843;BME280;10082;51.038;6.992;2023-06-22T07:01:21;112171.53;;;-144.33;79.37
19843;BME280;10082;51.038;6.992;2023-06-22T07:03:54;112171.53;;;-144.33;77.81
19843;BME280;10082;51.038;6.992;2023-06-22T07:06:26;112171.53;;;-144.33;76.15
19843;BME280;10082;51.038;6.992;2023-06-22T07:08:59;112171.53;;;-144.33;79.46
19843;BME280;10082;51.038;6.992;2023-06-22T07:11:27;112171.53;;;-144.33;80.50
19843;BME280;10082;51.038;6.992;2023-06-22T07:13:55;112171.53;;;-144.33;78.54
19843;BME280;10082;51.038;6.992;2023-06-22T07:16:22;112171.53;;;-144.33;75.84
19843;BME280;10082;51.038;6.992;2023-06-22T07:18:51;112171.53;;;-144.33;77.04
19843;BME280;10082;51.038;6.992;2023-06-22T07:21:19;112171.53;;;-144.33;76.38
19843;BME280;10082;51.038;6.992;2023-06-22T07:23:50;112171.53;;;-144.33;75.73
19843;BME280;10082;51.038;6.992;2023-06-22T07:26:19;112171.53;;;-144.33;84.81
19843;BME280;10082;51.038;6.992;2023-06-22T07:28:47;112171.53;;;-144.33;81.22
19843;BME280;10082;51.038;6.992;2023-06-22T07:31:16;112171.53;;;-144.33;77.17
19843;BME280;10082;51.038;6.992;2023-06-22T07:33:45;112171.53;;;-144.33;69.82
19843;BME280;10082;51.038;6.992;2023-06-22T07:36:16;112171.53;;;-144.33;66.15
19843;BME280;10082;51.038;6.992;2023-06-22T07:38:49;112171.53;;;-144.33;68.90
19843;BME280;10082;51.038;6.992;2023-06-22T07:41:24;112171.53;;;-144.33;67.00
19843;BME280;10082;51.038;6.992;2023-06-22T07:44:00;112171.53;;;-144.33;68.97
19843;BME280;10082;51.038;6.992;2023-06-22T07:46:31;112171.53;;;-144.33;70.99
19843;BME280;10082;51.038;6.992;2023-06-22T07:48:59;112171.53;;;-144.33;71.10
19843;BME280;10082;51.038;6.992;2023-06-22T07:51:35;112171.53;;;-144.33;67.17
19843;BME280;10082;51.038;6.992;2023-06-22T07:54:03;112171.53;;;-144.33;65.69
19843;BME280;10082;51.038;6.992;2023-06-22T07:56:34;112171.53;;;-144.33;65.19
19843;BME280;10082;51.038;6.992;2023-06-22T07:59:03;112171.53;;;-144.33;65.64
19843;BME280;10082;51.038;6.992;2023-06-22T08:01:34;112171.53;;;-144.33;65.48
19843;BME280;10082;51.038;6.992;2023-06-22T08:04:03;112171.53;;;-144.33;62.92
19843;BME280;10082;51.038;6.992;2023-06-22T08:06:32;112171.53;;;-144.33;60.60
19843;BME280;10082;51.038;6.992;2023-06-22T08:09:03;112171.53;;;-144.33;59.23
19843;BME280;10082;51.038;6.992;2023-06-22T08:11:30;112171.53;;;-144.33;58.67
19843;BME280;10082;51.038;6.992;2023-06-22T08:14:00;112171.53;;;-144.33;56.84
19843;BME280;10082;51.038;6.992;2023-06-22T08:16:30;112171.53;;;-144.33;58.61
19843;BME280;10082;51.038;6.992;2023-06-22T08:19:04;112171.53;;;-144.33;58.71
19843;BME280;10082;51.038;6.992;2023-06-22T08:21:31;112171.53;;;-144.33;60.98
19843;BME280;10082;51.038;6.992;2023-06-22T08:23:59;112171.53;;;-144.33;62.24
19843;BME280;10082;51.038;6.992;2023-06-22T08:26:27;112171.53;;;-144.33;55.17
19843;BME280;10082;51.038;6.992;2023-06-22T08:28:55;112171.53;;;-144.33;55.24
19843;BME280;10082;51.038;6.992;2023-06-22T08:31:24;112171.53;;;-144.33;55.63
19843;BME280;10082;51.038;6.992;2023-06-22T08:33:51;112171.53;;;-144.33;52.43
19843;BME280;10082;51.038;6.992;2023-06-22T08:36:22;112171.53;;;-144.33;51.13
19843;BME280;10082;51.038;6.992;2023-06-22T08:38:49;112171.53;;;-144.33;54.00
19843;BME280;10082;51.038;6.992;2023-06-22T08:41:16;112171.53;;;-144.33;52.69
19843;BME280;10082;51.038;6.992;2023-06-22T08:43:44;112171.53;;;-144.33;52.14
19843;BME280;10082;51.038;6.992;2023-06-22T08:46:12;112171.53;;;-144.33;52.94
19843;BME280;10082;51.038;6.992;2023-06-22T08:48:41;112171.53;;;-144.33;53.09
19843;BME280;10082;51.038;6.992;2023-06-22T08:51:09;112171.53;;;-144.33;53.26
19843;BME280;10082;51.038;6.992;2023-06-22T08:53:36;112171.53;;;-144.33;56.51
19843;BME280;10082;51.038;6.992;2023-06-22T08:56:04;112171.53;;;-144.33;56.37
19843;BME280;10082;51.038;6.992;2023-06-22T08:58:32;112171.53;;;-144.33;56.84
19843;BME280;10082;51.038;6.992;2023-06-22T09:01:02;112171.53;;;-144.33;56.00
19843;BME280;10082;51.038;6.992;2023-06-22T09:03:30;112171.53;;;-144.33;56.23
19843;BME280;10082;51.038;6.992;2023-06-22T09:06:00;112171.53;;;-144.33;60.24
19843;BME280;10082;51.038;6.992;2023-06-22T09:08:28;112171.53;;;-144.33;58.64
19843;BME280;10082;51.038;6.992;2023-06-22T09:10:56;112171.53;;;-144.33;60.06
19843;BME280;10082;51.038;6.992;2023-06-22T09:13:24;112171.53;;;-144.33;59.68
19843;BME280;10082;51.038;6.992;2023-06-22T09:15:55;112171.53;;;-144.33;59.62
19843;BME280;10082;51.038;6.992;2023-06-22T09:18:22;112171.53;;;-144.33;60.63
19843;BME280;10082;51.038;6.992;2023-06-22T09:20:53;112171.53;;;-144.33;59.37
19843;BME280;10082;51.038;6.992;2023-06-22T09:23:27;112171.53;;;-144.33;57.92
19843;BME280;10082;51.038;6.992;2023-06-22T09:25:54;112171.53;;;-144.33;58.09
19843;BME280;10082;51.038;6.992;2023-06-22T09:28:22;112171.53;;;-144.33;57.97
19843;BME280;10082;51.038;6.992;2023-06-22T09:30:49;112171.53;;;-144.33;56.76
19843;BME280;10082;51.038;6.992;2023-06-22T09:33:17;112171.53;;;-144.33;56.35
19843;BME280;10082;51.038;6.992;2023-06-22T09:35:46;112171.53;;;-144.33;54.70
19843;BME280;10082;51.038;6.992;2023-06-22T09:38:18;112171.53;;;-144.33;53.12
19843;BME280;10082;51.038;6.992;2023-06-22T09:40:50;112171.53;;;-144.33;55.36
19843;BME280;10082;51.038;6.992;2023-06-22T09:43:18;112171.53;;;-144.33;56.81
19843;BME280;10082;51.038;6.992;2023-06-22T09:45:49;112171.53;;;-144.33;56.04
19843;BME280;10082;51.038;6.992;2023-06-22T09:48:17;112171.53;;;-144.33;55.66
19843;BME280;10082;51.038;6.992;2023-06-22T09:50:50;112171.53;;;-144.33;55.90
19843;BME280;10082;51.038;6.992;2023-06-22T09:53:23;112171.53;;;-144.33;55.77
19843;BME280;10082;51.038;6.992;2023-06-22T09:59:43;112171.53;;;-144.33;55.15
19843;BME280;10082;51.038;6.992;2023-06-22T10:02:11;112171.53;;;-144.33;57.81
19843;BME280;10082;51.038;6.992;2023-06-22T10:04:40;112171.53;;;-144.33;58.23
19843;BME280;10082;51.038;6.992;2023-06-22T10:07:08;112171.53;;;-144.33;57.05
19843;BME280;10082;51.038;6.992;2023-06-22T10:09:41;112171.53;;;-144.33;58.63
19843;BME280;10082;51.038;6.992;2023-06-22T10:12:11;112171.53;;;-144.33;60.35
19843;BME280;10082;51.038;6.992;2023-06-22T10:14:39;112171.53;;;-144.33;60.84
19843;BME280;10082;51.038;6.992;2023-06-22T10:17:13;112171.53;;;-144.33;61.67
19843;BME280;10082;51.038;6.992;2023-06-22T10:19:50;112171.53;;;-144.33;63.04
19843;BME280;10082;51.038;6.992;2023-06-22T10:22:17;112171.53;;;-144.33;64.30
19843;BME280;10082;51.038;6.992;2023-06-22T10:24:45;112171.53;;;-144.33;65.50
19843;BME280;10082;51.038;6.992;2023-06-22T10:27:12;112171.53;;;-144.33;76.16
19843;BME280;10082;51.038;6.992;2023-06-22T10:29:40;112171.53;;;-144.33;86.78
19843;BME280;10082;51.038;6.992;2023-06-22T10:32:09;112171.53;;;-144.33;100.00
19843;BME280;10082;51.038;6.992;2023-06-22T10:34:42;112171.53;;;-144.33;100.00
19843;BME280;10082;51.038;6.992;2023-06-22T10:37:09;48774.03;;;-144.33;100.00
19843;BME280;10082;51.038;6.992;2023-06-22T10:39:36;32322.84;;;-144.33;100.00
19843;BME280;10082;51.038;6.992;2023-06-22T10:42:08;19463.16;;;-144.33;100.00
19843;BME280;10082;51.038;6.992;2023-06-22T10:44:39;6896.72;;;-144.33;100.00
19843;BME280;10082;51.038;6.992;2023-06-22T10:47:08;1380.41;;;-144.33;100.00
19843;BME280;10082;51.038;6.992;2023-06-22T10:49:37;-2626.53;;;-144.33;100.00
19843;BME280;10082;51.038;6.992;2023-06-22T10:52:06;-3377.38;;;-144.33;100.00
19843;BME280;10082;51.038;6.992;2023-06-22T10:54:35;-7379.34;;;-144.33;100.00
19843;BME280;10082;51.038;6.992;2023-06-22T10:57:04;-11626.88;;;-144.33;100.00
19843;BME280;10082;51.038;6.992;2023-06-22T10:59:31;-13624.09;;;-144.33;100.00
19843;BME280;10082;51.038;6.992;2023-06-22T11:01:58;-16368.56;;;-144.33;100.00
19843;BME280;10082;51.038;6.992;2023-06-22T11:04:28;-17615.41;;;-144.33;100.00
19843;BME280;10082;51.038;6.992;2023-06-22T11:06:57;-17616.84;;;-144.33;100.00
19843;BME280;10082;51.038;6.992;2023-06-22T11:09:26;-17616.84;;;-144.33;100.00
19843;BME280;10082;51.038;6.992;2023-06-22T11:11:53;-17616.84;;;-144.33;100.00
19843;BME280;10082;51.038;6.992;2023-06-22T11:14:20;-17616.84;;;-144.33;100.00
19843;BME280;10082;51.038;6.992;2023-06-22T11:16:49;-17616.84;;;-144.33;100.00
19843;BME280;10082;51.038;6.992;2023-06-22T11:23:04;-17616.84;;;-144.33;100.00
19843;BME280;10082;51.038;6.992;2023-06-22T11:25:34;-17616.84;;;-144.33;100.00
19843;BME280;10082;51.038;6.992;2023-06-22T11:28:02;-17616.84;;;-144.33;100.00
19843;BME280;10082;51.038;6.992;2023-06-22T11:30:29;-17616.84;;;-144.33;100.00
19843;BME280;10082;51.038;6.992;2023-06-22T11:32:58;-17616.84;;;-144.33;100.00
19843;BME280;10082;51.038;6.992;2023-06-22T11:35:29;-17616.84;;;-144.33;100.00
19843;BME280;10082;51.038;6.992;2023-06-22T11:37:59;-17615.41;;;-144.33;100.00
19843;BME280;10082;51.038;6.992;2023-06-22T11:40:26;-17615.41;;;-144.33;100.00
19843;BME280;10082;51.038;6.992;2023-06-22T11:42:56;-17366.06;;;-144.33;100.00
19843;BME280;10082;51.038;6.992;2023-06-22T11:45:24;-16867.34;;;-144.33;100.00
19843;BME280;10082;51.038;6.992;2023-06-22T11:47:52;-16617.97;;;-144.33;100.00
19843;BME280;10082;51.038;6.992;2023-06-22T11:50:21;-16119.16;;;-144.33;100.00
19843;BME280;10082;51.038;6.992;2023-06-22T11:52:52;-15121.31;;;-144.33;100.00
19843;BME280;10082;51.038;6.992;2023-06-22T11:55:19;-14123.22;;;-144.33;100.00
19843;BME280;10082;51.038;6.992;2023-06-22T11:57:54;-13624.09;;;-144.33;100.00
19843;BME280;10082;51.038;6.992;2023-06-22T12:00:26;-12375.97;;;-144.33;100.00
19843;BME280;10082;51.038;6.992;2023-06-22T12:02:53;-12081.41;;;-144.33;100.00
19843;BME280;10082;51.038;6.992;2023-06-22T12:05:22;-12097.03;;;-144.33;100.00
19843;BME280;10082;51.038;6.992;2023-06-22T12:07:53;-11250.34;;;-144.33;100.00
19843;BME280;10082;51.038;6.992;2023-06-22T12:10:21;-10516.66;;;-144.33;100.00
19843;BME280;10082;51.038;6.992;2023-06-22T12:12:50;-11084.50;;;-144.33;100.00
19843;BME280;10082;51.038;6.992;2023-06-22T12:15:17;-10190.75;;;-144.33;100.00
19843;BME280;10082;51.038;6.992;2023-06-22T12:17:46;-10415.19;;;-144.33;100.00
19843;BME280;10082;51.038;6.992;2023-06-22T12:20:15;-6183.88;;;-144.33;100.00
19843;BME280;10082;51.038;6.992;2023-06-22T12:22:43;1836.53;;;-144.33;100.00
19843;BME280;10082;51.038;6.992;2023-06-22T12:25:11;4823.25;;;-144.33;100.00
19843;BME280;10082;51.038;6.992;2023-06-22T12:27:38;7716.22;;;-144.33;100.00
19843;BME280;10082;51.038;6.992;2023-06-22T12:30:06;7026.13;;;-144.33;100.00
19843;BME280;10082;51.038;6.992;2023-06-22T12:32:34;9438.16;;;-144.33;100.00
19843;BME280;10082;51.038;6.992;2023-06-22T12:35:02;10319.00;;;-144.33;100.00
19843;BME280;10082;51.038;6.992;2023-06-22T12:37:30;10122.81;;;-144.33;100.00
19843;BME280;10082;51.038;6.992;2023-06-22T12:39:58;13496.88;;;-144.33;100.00
19843;BME280;10082;51.038;6.992;2023-06-22T12:45:11;24442.03;;;-144.33;100.00
19843;BME280;10082;51.038;6.992;2023-06-22T12:47:38;49749.00;;;-144.33;100.00
19843;BME280;10082;51.038;6.992;2023-06-22T12:50:07;100854.19;;;-144.33;100.00
19843;BME280;10082;51.038;6.992;2023-06-22T12:52:39;112171.53;;;-144.33;100.00
19843;BME280;10082;51.038;6.992;2023-06-22T12:55:07;112171.53;;;-144.33;100.00
19843;BME280;10082;51.038;6.992;2023-06-22T12:57:34;112171.53;;;-144.33;100.00
19843;BME280;10082;51.038;6.992;2023-06-22T13:00:02;112171.53;;;-144.33;100.00
19843;BME280;10082;51.038;6.992;2023-06-22T13:02:30;112171.53;;;-144.33;100.00
19843;BME280;10082;51.038;6.992;2023-06-22T13:05:01;112171.53;;;-144.33;100.00
19843;BME280;10082;51.038;6.992;2023-06-22T13:07:32;112171.53;;;-144.33;100.00
19843;BME280;10082;51.038;6.992;2023-06-22T13:09:59;112171.53;;;-144.33;100.00
19843;BME280;10082;51.038;6.992;2023-06-22T13:12:27;112171.53;;;-144.33;100.00
19843;BME280;10082;51.038;6.992;2023-06-22T13:14:54;112171.53;;;-144.33;98.59
19843;BME280;10082;51.038;6.992;2023-06-22T13:17:21;112171.53;;;-144.33;95.16
19843;BME280;10082;51.038;6.992;2023-06-22T13:19:48;112171.53;;;-144.33;92.16
19843;BME280;10082;51.038;6.992;2023-06-22T13:22:36;112171.53;;;-144.33;88.38
19843;BME280;10082;51.038;6.992;2023-06-22T13:25:08;112171.53;;;-144.33;88.09
19843;BME280;10082;51.038;6.992;2023-06-22T13:27:37;112171.53;;;-144.33;83.21
19843;BME280;10082;51.038;6.992;2023-06-22T13:30:06;112171.53;;;-144.33;87.99
19843;BME280;10082;51.038;6.992;2023-06-22T13:32:33;112171.53;;;-144.33;95.04
19843;BME280;10082;51.038;6.992;2023-06-22T13:35:01;112171.53;;;-144.33;93.56
19843;BME280;10082;51.038;6.992;2023-06-22T13:37:28;112171.53;;;-144.33;88.98
19843;BME280;10082;51.038;6.992;2023-06-22T13:39:57;112171.53;;;-144.33;80.92
19843;BME280;10082;51.038;6.992;2023-06-22T13:42:25;112171.53;;;-144.33;76.60
19843;BME280;10082;51.038;6.992;2023-06-22T13:44:52;112171.53;;;-144.33;74.53
19843;BME280;10082;51.038;6.992;2023-06-22T13:47:20;112171.53;;;-144.33;71.45
19843;BME280;10082;51.038;6.992;2023-06-22T13:49:47;112171.53;;;-144.33;70.19
19843;BME280;10082;51.038;6.992;2023-06-22T13:52:14;112171.53;;;-144.33;69.36
19843;BME280;10082;51.038;6.992;2023-06-22T13:54:41;112171.53;;;-144.33;70.20
19843;BME280;10082;51.038;6.992;2023-06-22T13:57:10;112171.53;;;-144.33;77.30
19843;BME280;10082;51.038;6.992;2023-06-22T13:59:37;112171.53;;;-144.33;79.52
19843;BME280;10082;51.038;6.992;2023-06-22T14:02:06;112171.53;;;-144.33;81.14
19843;BME280;10082;51.038;6.992;2023-06-22T14:04:33;112171.53;;;-144.33;80.91